Terminal Aerodrome Forecast
Issued by NWS Mt. Holly, NJ

Home | Current Version | Previous Version | Text Only | Print | Product List | Glossary On
Versions: 1 2 3 4 5 6 7 8 9 10 11 12 13 14 15 16 17 18 19 20 21 22 23
000
FTUS41 KPHI 300816 AAA
TAFRDG
TAF AMD
KRDG 300816Z 3008/3106 16006KT P6SM BKN013 BKN040
      TEMPO 3009/3012 VRB03KT 3SM BR BKN008
     FM301300 19005KT P6SM BKN025
     FM301500 21007KT P6SM SCT035
     FM301700 20010G19KT P6SM -SHRA BKN045
     FM310000 18008KT P6SM -SHRA BKN035 OVC060=

USA.gov is the U.S. government's official web portal to all federal, state and local government web resources and services.